sensor_id;sensor_type;location;lat;lon;timestamp;P1;durP1;ratioP1;P2;durP2;ratioP2
69841;SDS011;57138;51.326;-0.068;2023-05-10T00:02:24;13.38;;;4.38;;
69841;SDS011;57138;51.326;-0.068;2023-05-10T00:04:50;16.77;;;4.40;;
69841;SDS011;57138;51.326;-0.068;2023-05-10T00:07:15;11.10;;;4.80;;
69841;SDS011;57138;51.326;-0.068;2023-05-10T00:09:42;13.73;;;4.65;;
69841;SDS011;57138;51.326;-0.068;2023-05-10T00:12:08;15.02;;;4.82;;
69841;SDS011;57138;51.326;-0.068;2023-05-10T00:14:33;14.93;;;4.18;;
69841;SDS011;57138;51.326;-0.068;2023-05-10T00:16:59;12.68;;;4.82;;
69841;SDS011;57138;51.326;-0.068;2023-05-10T00:19:25;15.95;;;4.90;;
69841;SDS011;57138;51.326;-0.068;2023-05-10T00:21:50;13.50;;;5.10;;
69841;SDS011;57138;51.326;-0.068;2023-05-10T00:24:15;14.98;;;5.47;;
69841;SDS011;57138;51.326;-0.068;2023-05-10T00:26:41;21.17;;;5.50;;
69841;SDS011;57138;51.326;-0.068;2023-05-10T00:29:07;13.68;;;5.68;;
69841;SDS011;57138;51.326;-0.068;2023-05-10T00:31:32;21.30;;;6.82;;
69841;SDS011;57138;51.326;-0.068;2023-05-10T00:33:58;17.65;;;5.57;;
69841;SDS011;57138;51.326;-0.068;2023-05-10T00:36:23;21.17;;;7.00;;
69841;SDS011;57138;51.326;-0.068;2023-05-10T00:38:49;18.08;;;6.35;;
69841;SDS011;57138;51.326;-0.068;2023-05-10T00:41:14;24.45;;;7.72;;
69841;SDS011;57138;51.326;-0.068;2023-05-10T00:43:40;17.35;;;7.53;;
69841;SDS011;57138;51.326;-0.068;2023-05-10T00:46:06;22.27;;;7.35;;
69841;SDS011;57138;51.326;-0.068;2023-05-10T00:48:32;19.20;;;8.05;;
69841;SDS011;57138;51.326;-0.068;2023-05-10T00:50:57;21.23;;;7.72;;
69841;SDS011;57138;51.326;-0.068;2023-05-10T00:53:23;23.50;;;8.00;;
69841;SDS011;57138;51.326;-0.068;2023-05-10T00:55:49;17.08;;;7.05;;
69841;SDS011;57138;51.326;-0.068;2023-05-10T00:58:15;18.90;;;7.45;;
69841;SDS011;57138;51.326;-0.068;2023-05-10T01:00:42;14.60;;;6.57;;
69841;SDS011;57138;51.326;-0.068;2023-05-10T01:03:11;16.65;;;7.20;;
69841;SDS011;57138;51.326;-0.068;2023-05-10T01:05:39;25.17;;;8.15;;
69841;SDS011;57138;51.326;-0.068;2023-05-10T01:08:04;21.13;;;6.65;;
69841;SDS011;57138;51.326;-0.068;2023-05-10T01:10:30;22.00;;;7.45;;
69841;SDS011;57138;51.326;-0.068;2023-05-10T01:12:56;14.07;;;5.35;;
69841;SDS011;57138;51.326;-0.068;2023-05-10T01:15:24;18.98;;;7.47;;
69841;SDS011;57138;51.326;-0.068;2023-05-10T01:17:49;15.18;;;6.10;;
69841;SDS011;57138;51.326;-0.068;2023-05-10T01:20:16;17.38;;;5.97;;
69841;SDS011;57138;51.326;-0.068;2023-05-10T01:28:37;16.45;;;5.68;;
69841;SDS011;57138;51.326;-0.068;2023-05-10T01:36:48;16.15;;;6.07;;
69841;SDS011;57138;51.326;-0.068;2023-05-10T01:39:45;18.33;;;5.90;;
69841;SDS011;57138;51.326;-0.068;2023-05-10T01:42:25;19.55;;;5.72;;
69841;SDS011;57138;51.326;-0.068;2023-05-10T01:45:02;25.65;;;6.22;;
69841;SDS011;57138;51.326;-0.068;2023-05-10T01:50:24;18.30;;;6.85;;
69841;SDS011;57138;51.326;-0.068;2023-05-10T01:52:54;18.35;;;5.93;;
69841;SDS011;57138;51.326;-0.068;2023-05-10T01:55:23;14.77;;;6.38;;
69841;SDS011;57138;51.326;-0.068;2023-05-10T01:57:56;19.42;;;7.20;;
69841;SDS011;57138;51.326;-0.068;2023-05-10T02:00:25;23.10;;;7.32;;
69841;SDS011;57138;51.326;-0.068;2023-05-10T02:02:52;20.35;;;7.88;;
69841;SDS011;57138;51.326;-0.068;2023-05-10T02:05:18;22.55;;;8.73;;
69841;SDS011;57138;51.326;-0.068;2023-05-10T02:07:45;20.65;;;7.95;;
69841;SDS011;57138;51.326;-0.068;2023-05-10T02:10:11;23.92;;;8.35;;
69841;SDS011;57138;51.326;-0.068;2023-05-10T02:12:42;27.70;;;8.75;;
69841;SDS011;57138;51.326;-0.068;2023-05-10T02:15:10;26.90;;;8.30;;
69841;SDS011;57138;51.326;-0.068;2023-05-10T02:17:38;23.45;;;8.10;;
69841;SDS011;57138;51.326;-0.068;2023-05-10T02:20:05;37.53;;;9.48;;
69841;SDS011;57138;51.326;-0.068;2023-05-10T02:22:32;32.08;;;9.50;;
69841;SDS011;57138;51.326;-0.068;2023-05-10T02:25:00;34.80;;;9.82;;
69841;SDS011;57138;51.326;-0.068;2023-05-10T02:27:27;31.23;;;9.85;;
69841;SDS011;57138;51.326;-0.068;2023-05-10T02:29:53;26.10;;;9.60;;
69841;SDS011;57138;51.326;-0.068;2023-05-10T02:32:20;32.25;;;10.27;;
69841;SDS011;57138;51.326;-0.068;2023-05-10T02:34:46;28.73;;;9.77;;
69841;SDS011;57138;51.326;-0.068;2023-05-10T02:37:16;27.48;;;10.38;;
69841;SDS011;57138;51.326;-0.068;2023-05-10T02:39:46;26.80;;;9.90;;
69841;SDS011;57138;51.326;-0.068;2023-05-10T02:42:13;23.85;;;9.43;;
69841;SDS011;57138;51.326;-0.068;2023-05-10T02:44:42;29.02;;;10.27;;
69841;SDS011;57138;51.326;-0.068;2023-05-10T02:47:10;30.77;;;11.00;;
69841;SDS011;57138;51.326;-0.068;2023-05-10T02:49:35;40.40;;;10.27;;
69841;SDS011;57138;51.326;-0.068;2023-05-10T02:52:01;32.13;;;11.30;;
69841;SDS011;57138;51.326;-0.068;2023-05-10T02:54:33;36.42;;;11.75;;
69841;SDS011;57138;51.326;-0.068;2023-05-10T02:57:04;32.22;;;11.55;;
69841;SDS011;57138;51.326;-0.068;2023-05-10T02:59:31;32.70;;;11.02;;
69841;SDS011;57138;51.326;-0.068;2023-05-10T03:01:57;38.03;;;12.02;;
69841;SDS011;57138;51.326;-0.068;2023-05-10T03:04:25;33.58;;;11.25;;
69841;SDS011;57138;51.326;-0.068;2023-05-10T03:06:50;33.08;;;11.43;;
69841;SDS011;57138;51.326;-0.068;2023-05-10T03:09:16;38.17;;;11.93;;
69841;SDS011;57138;51.326;-0.068;2023-05-10T03:19:52;45.33;;;13.95;;
69841;SDS011;57138;51.326;-0.068;2023-05-10T03:22:28;43.72;;;13.13;;
69841;SDS011;57138;51.326;-0.068;2023-05-10T03:24:57;43.25;;;13.82;;
69841;SDS011;57138;51.326;-0.068;2023-05-10T03:27:25;42.22;;;13.75;;
69841;SDS011;57138;51.326;-0.068;2023-05-10T03:29:52;41.65;;;13.23;;
69841;SDS011;57138;51.326;-0.068;2023-05-10T03:32:19;52.50;;;14.18;;
69841;SDS011;57138;51.326;-0.068;2023-05-10T03:34:45;52.47;;;15.68;;
69841;SDS011;57138;51.326;-0.068;2023-05-10T03:37:10;56.17;;;14.75;;
69841;SDS011;57138;51.326;-0.068;2023-05-10T03:39:36;62.63;;;15.05;;
69841;SDS011;57138;51.326;-0.068;2023-05-10T03:42:01;50.30;;;15.70;;
69841;SDS011;57138;51.326;-0.068;2023-05-10T03:44:27;65.10;;;16.00;;
69841;SDS011;57138;51.326;-0.068;2023-05-10T03:46:52;61.85;;;15.98;;
69841;SDS011;57138;51.326;-0.068;2023-05-10T03:49:17;52.50;;;14.77;;
69841;SDS011;57138;51.326;-0.068;2023-05-10T03:51:43;53.95;;;15.30;;
69841;SDS011;57138;51.326;-0.068;2023-05-10T03:54:08;53.58;;;16.08;;
69841;SDS011;57138;51.326;-0.068;2023-05-10T03:56:34;47.83;;;14.68;;
69841;SDS011;57138;51.326;-0.068;2023-05-10T03:58:59;53.60;;;15.50;;
69841;SDS011;57138;51.326;-0.068;2023-05-10T04:01:25;56.30;;;15.98;;
69841;SDS011;57138;51.326;-0.068;2023-05-10T04:03:50;58.58;;;16.52;;
69841;SDS011;57138;51.326;-0.068;2023-05-10T04:06:15;49.45;;;14.55;;
69841;SDS011;57138;51.326;-0.068;2023-05-10T04:08:41;52.95;;;15.00;;
69841;SDS011;57138;51.326;-0.068;2023-05-10T04:11:07;67.65;;;16.13;;
69841;SDS011;57138;51.326;-0.068;2023-05-10T04:13:33;60.90;;;16.35;;
69841;SDS011;57138;51.326;-0.068;2023-05-10T04:15:59;64.57;;;16.75;;
69841;SDS011;57138;51.326;-0.068;2023-05-10T04:18:25;49.95;;;15.88;;
69841;SDS011;57138;51.326;-0.068;2023-05-10T04:20:50;50.85;;;15.45;;
69841;SDS011;57138;51.326;-0.068;2023-05-10T04:23:16;50.00;;;15.30;;
69841;SDS011;57138;51.326;-0.068;2023-05-10T04:25:41;55.85;;;15.75;;
69841;SDS011;57138;51.326;-0.068;2023-05-10T04:28:07;62.83;;;17.25;;
69841;SDS011;57138;51.326;-0.068;2023-05-10T04:30:33;52.88;;;16.52;;
69841;SDS011;57138;51.326;-0.068;2023-05-10T04:32:58;64.95;;;15.50;;
69841;SDS011;57138;51.326;-0.068;2023-05-10T04:35:23;43.75;;;13.73;;
69841;SDS011;57138;51.326;-0.068;2023-05-10T04:37:49;73.47;;;16.23;;
69841;SDS011;57138;51.326;-0.068;2023-05-10T04:40:14;59.05;;;14.10;;
69841;SDS011;57138;51.326;-0.068;2023-05-10T04:42:40;49.25;;;14.73;;
69841;SDS011;57138;51.326;-0.068;2023-05-10T04:45:06;58.55;;;14.68;;
69841;SDS011;57138;51.326;-0.068;2023-05-10T04:47:32;51.85;;;13.45;;
69841;SDS011;57138;51.326;-0.068;2023-05-10T04:49:57;59.28;;;14.73;;
69841;SDS011;57138;51.326;-0.068;2023-05-10T04:52:23;59.97;;;13.68;;
69841;SDS011;57138;51.326;-0.068;2023-05-10T04:54:49;45.13;;;13.68;;
69841;SDS011;57138;51.326;-0.068;2023-05-10T04:57:14;47.03;;;14.20;;
69841;SDS011;57138;51.326;-0.068;2023-05-10T04:59:39;48.22;;;13.85;;
69841;SDS011;57138;51.326;-0.068;2023-05-10T05:02:05;43.58;;;12.98;;
69841;SDS011;57138;51.326;-0.068;2023-05-10T05:04:30;37.65;;;13.25;;
69841;SDS011;57138;51.326;-0.068;2023-05-10T05:06:56;47.75;;;13.73;;
69841;SDS011;57138;51.326;-0.068;2023-05-10T05:09:22;56.50;;;14.95;;
69841;SDS011;57138;51.326;-0.068;2023-05-10T05:11:47;44.65;;;13.90;;
69841;SDS011;57138;51.326;-0.068;2023-05-10T05:14:12;58.38;;;15.50;;
69841;SDS011;57138;51.326;-0.068;2023-05-10T05:16:39;59.88;;;15.15;;
69841;SDS011;57138;51.326;-0.068;2023-05-10T05:19:04;58.97;;;16.30;;
69841;SDS011;57138;51.326;-0.068;2023-05-10T05:21:31;64.80;;;15.88;;
69841;SDS011;57138;51.326;-0.068;2023-05-10T05:23:57;55.25;;;15.93;;
69841;SDS011;57138;51.326;-0.068;2023-05-10T05:26:23;47.95;;;14.98;;
69841;SDS011;57138;51.326;-0.068;2023-05-10T05:28:48;56.42;;;16.52;;
69841;SDS011;57138;51.326;-0.068;2023-05-10T05:31:16;72.57;;;16.38;;
69841;SDS011;57138;51.326;-0.068;2023-05-10T05:33:42;60.13;;;15.70;;
69841;SDS011;57138;51.326;-0.068;2023-05-10T05:36:08;54.30;;;16.52;;
69841;SDS011;57138;51.326;-0.068;2023-05-10T05:38:34;51.00;;;13.85;;
69841;SDS011;57138;51.326;-0.068;2023-05-10T05:40:59;49.85;;;14.93;;
69841;SDS011;57138;51.326;-0.068;2023-05-10T05:43:25;51.28;;;14.50;;
69841;SDS011;57138;51.326;-0.068;2023-05-10T05:45:51;55.90;;;15.15;;
69841;SDS011;57138;51.326;-0.068;2023-05-10T05:48:18;41.50;;;12.43;;
69841;SDS011;57138;51.326;-0.068;2023-05-10T05:50:44;46.40;;;13.98;;
69841;SDS011;57138;51.326;-0.068;2023-05-10T05:53:10;51.15;;;13.07;;
69841;SDS011;57138;51.326;-0.068;2023-05-10T05:55:36;37.33;;;12.18;;
69841;SDS011;57138;51.326;-0.068;2023-05-10T05:58:01;45.45;;;12.40;;
69841;SDS011;57138;51.326;-0.068;2023-05-10T06:00:26;45.97;;;12.57;;
69841;SDS011;57138;51.326;-0.068;2023-05-10T06:02:52;40.70;;;11.93;;
69841;SDS011;57138;51.326;-0.068;2023-05-10T06:05:17;33.13;;;10.82;;
69841;SDS011;57138;51.326;-0.068;2023-05-10T06:07:44;41.97;;;12.93;;
69841;SDS011;57138;51.326;-0.068;2023-05-10T06:10:11;35.75;;;11.27;;
69841;SDS011;57138;51.326;-0.068;2023-05-10T06:12:36;24.45;;;11.02;;
69841;SDS011;57138;51.326;-0.068;2023-05-10T06:15:02;25.17;;;10.88;;
69841;SDS011;57138;51.326;-0.068;2023-05-10T06:17:28;30.98;;;9.85;;
69841;SDS011;57138;51.326;-0.068;2023-05-10T06:19:54;33.15;;;10.30;;
69841;SDS011;57138;51.326;-0.068;2023-05-10T06:22:19;26.60;;;8.60;;
69841;SDS011;57138;51.326;-0.068;2023-05-10T06:24:46;33.97;;;10.75;;
69841;SDS011;57138;51.326;-0.068;2023-05-10T06:27:12;32.45;;;10.65;;
69841;SDS011;57138;51.326;-0.068;2023-05-10T06:29:37;23.42;;;8.48;;
69841;SDS011;57138;51.326;-0.068;2023-05-10T06:32:03;30.67;;;8.68;;
69841;SDS011;57138;51.326;-0.068;2023-05-10T06:34:28;23.13;;;8.93;;
69841;SDS011;57138;51.326;-0.068;2023-05-10T06:36:53;28.30;;;7.55;;
69841;SDS011;57138;51.326;-0.068;2023-05-10T06:39:19;20.15;;;7.45;;
69841;SDS011;57138;51.326;-0.068;2023-05-10T06:41:44;19.92;;;6.80;;
69841;SDS011;57138;51.326;-0.068;2023-05-10T06:44:10;14.80;;;6.40;;
69841;SDS011;57138;51.326;-0.068;2023-05-10T06:46:35;26.98;;;7.47;;
69841;SDS011;57138;51.326;-0.068;2023-05-10T06:49:01;19.10;;;5.97;;
69841;SDS011;57138;51.326;-0.068;2023-05-10T06:51:26;22.77;;;5.60;;
69841;SDS011;57138;51.326;-0.068;2023-05-10T06:53:52;21.83;;;5.43;;
69841;SDS011;57138;51.326;-0.068;2023-05-10T06:56:17;21.83;;;7.38;;
69841;SDS011;57138;51.326;-0.068;2023-05-10T06:58:44;23.25;;;5.93;;
69841;SDS011;57138;51.326;-0.068;2023-05-10T07:01:09;25.52;;;7.40;;
69841;SDS011;57138;51.326;-0.068;2023-05-10T07:03:35;18.15;;;6.63;;
69841;SDS011;57138;51.326;-0.068;2023-05-10T07:06:03;69.43;;;7.93;;
69841;SDS011;57138;51.326;-0.068;2023-05-10T07:08:30;61.70;;;8.70;;
69841;SDS011;57138;51.326;-0.068;2023-05-10T07:11:00;53.95;;;8.93;;
69841;SDS011;57138;51.326;-0.068;2023-05-10T07:13:30;15.88;;;5.65;;
69841;SDS011;57138;51.326;-0.068;2023-05-10T07:15:58;43.30;;;7.95;;
69841;SDS011;57138;51.326;-0.068;2023-05-10T07:18:24;212.27;;;13.77;;
69841;SDS011;57138;51.326;-0.068;2023-05-10T07:20:50;63.35;;;7.63;;
69841;SDS011;57138;51.326;-0.068;2023-05-10T07:23:15;27.73;;;6.63;;
69841;SDS011;57138;51.326;-0.068;2023-05-10T07:25:46;110.35;;;9.90;;
69841;SDS011;57138;51.326;-0.068;2023-05-10T07:28:14;16.20;;;6.45;;
69841;SDS011;57138;51.326;-0.068;2023-05-10T07:30:42;36.17;;;6.78;;
69841;SDS011;57138;51.326;-0.068;2023-05-10T07:33:08;17.25;;;5.30;;
69841;SDS011;57138;51.326;-0.068;2023-05-10T07:35:34;19.85;;;6.97;;
69841;SDS011;57138;51.326;-0.068;2023-05-10T07:38:00;16.67;;;5.32;;
69841;SDS011;57138;51.326;-0.068;2023-05-10T07:40:26;29.67;;;5.03;;
69841;SDS011;57138;51.326;-0.068;2023-05-10T07:42:51;16.83;;;5.20;;
69841;SDS011;57138;51.326;-0.068;2023-05-10T07:45:17;18.30;;;4.50;;
69841;SDS011;57138;51.326;-0.068;2023-05-10T07:47:42;34.85;;;5.95;;
69841;SDS011;57138;51.326;-0.068;2023-05-10T07:50:08;19.25;;;5.30;;
69841;SDS011;57138;51.326;-0.068;2023-05-10T07:52:33;16.48;;;4.90;;
69841;SDS011;57138;51.326;-0.068;2023-05-10T07:54:59;16.30;;;5.70;;
69841;SDS011;57138;51.326;-0.068;2023-05-10T07:57:24;19.83;;;4.97;;
69841;SDS011;57138;51.326;-0.068;2023-05-10T07:59:50;19.67;;;5.47;;
69841;SDS011;57138;51.326;-0.068;2023-05-10T08:02:15;18.38;;;5.45;;
69841;SDS011;57138;51.326;-0.068;2023-05-10T08:04:41;16.52;;;5.18;;
69841;SDS011;57138;51.326;-0.068;2023-05-10T08:07:06;17.13;;;4.47;;
69841;SDS011;57138;51.326;-0.068;2023-05-10T08:09:32;16.73;;;5.43;;
69841;SDS011;57138;51.326;-0.068;2023-05-10T08:11:58;17.73;;;4.55;;
69841;SDS011;57138;51.326;-0.068;2023-05-10T08:14:25;18.60;;;5.30;;
69841;SDS011;57138;51.326;-0.068;2023-05-10T08:16:50;20.33;;;5.38;;
69841;SDS011;57138;51.326;-0.068;2023-05-10T08:19:16;15.27;;;5.25;;
69841;SDS011;57138;51.326;-0.068;2023-05-10T08:21:46;14.57;;;4.57;;
69841;SDS011;57138;51.326;-0.068;2023-05-10T08:24:12;15.07;;;6.13;;
69841;SDS011;57138;51.326;-0.068;2023-05-10T08:26:37;19.25;;;5.05;;
69841;SDS011;57138;51.326;-0.068;2023-05-10T08:29:03;18.08;;;4.72;;
69841;SDS011;57138;51.326;-0.068;2023-05-10T08:31:28;22.38;;;5.22;;
69841;SDS011;57138;51.326;-0.068;2023-05-10T08:33:54;12.90;;;4.55;;
69841;SDS011;57138;51.326;-0.068;2023-05-10T08:36:20;15.52;;;4.80;;
69841;SDS011;57138;51.326;-0.068;2023-05-10T08:38:50;17.35;;;5.35;;
69841;SDS011;57138;51.326;-0.068;2023-05-10T08:41:22;14.55;;;4.82;;
69841;SDS011;57138;51.326;-0.068;2023-05-10T08:43:50;17.80;;;5.95;;
69841;SDS011;57138;51.326;-0.068;2023-05-10T08:46:17;13.68;;;4.32;;
69841;SDS011;57138;51.326;-0.068;2023-05-10T08:48:47;17.85;;;5.38;;
69841;SDS011;57138;51.326;-0.068;2023-05-10T08:51:15;13.27;;;4.72;;
69841;SDS011;57138;51.326;-0.068;2023-05-10T08:53:44;19.00;;;5.85;;
69841;SDS011;57138;51.326;-0.068;2023-05-10T08:56:11;17.45;;;5.43;;
69841;SDS011;57138;51.326;-0.068;2023-05-10T08:58:37;18.00;;;5.65;;
69841;SDS011;57138;51.326;-0.068;2023-05-10T09:01:03;13.55;;;5.05;;
69841;SDS011;57138;51.326;-0.068;2023-05-10T09:03:30;16.55;;;5.07;;
69841;SDS011;57138;51.326;-0.068;2023-05-10T09:05:56;19.67;;;6.03;;
69841;SDS011;57138;51.326;-0.068;2023-05-10T09:08:24;12.02;;;4.30;;
69841;SDS011;57138;51.326;-0.068;2023-05-10T09:10:52;12.07;;;4.50;;
69841;SDS011;57138;51.326;-0.068;2023-05-10T09:13:19;16.98;;;4.45;;
69841;SDS011;57138;51.326;-0.068;2023-05-10T09:15:47;13.43;;;4.35;;
69841;SDS011;57138;51.326;-0.068;2023-05-10T09:18:13;12.57;;;5.03;;
69841;SDS011;57138;51.326;-0.068;2023-05-10T09:20:39;13.88;;;4.70;;
69841;SDS011;57138;51.326;-0.068;2023-05-10T09:23:05;16.33;;;4.82;;
69841;SDS011;57138;51.326;-0.068;2023-05-10T09:25:31;14.63;;;4.80;;
69841;SDS011;57138;51.326;-0.068;2023-05-10T09:27:59;17.35;;;4.50;;
69841;SDS011;57138;51.326;-0.068;2023-05-10T09:30:26;16.23;;;5.60;;
69841;SDS011;57138;51.326;-0.068;2023-05-10T09:32:53;12.98;;;5.20;;
69841;SDS011;57138;51.326;-0.068;2023-05-10T09:35:20;20.17;;;6.05;;
69841;SDS011;57138;51.326;-0.068;2023-05-10T09:37:52;13.90;;;5.38;;
69841;SDS011;57138;51.326;-0.068;2023-05-10T09:43:04;10.32;;;5.13;;
69841;SDS011;57138;51.326;-0.068;2023-05-10T09:45:32;11.27;;;4.30;;
69841;SDS011;57138;51.326;-0.068;2023-05-10T09:48:00;13.75;;;5.07;;
69841;SDS011;57138;51.326;-0.068;2023-05-10T09:50:27;13.25;;;5.15;;
69841;SDS011;57138;51.326;-0.068;2023-05-10T09:52:54;13.25;;;4.45;;
69841;SDS011;57138;51.326;-0.068;2023-05-10T09:55:42;15.77;;;4.80;;
69841;SDS011;57138;51.326;-0.068;2023-05-10T09:58:12;16.50;;;4.65;;
69841;SDS011;57138;51.326;-0.068;2023-05-10T10:00:41;12.82;;;4.75;;
69841;SDS011;57138;51.326;-0.068;2023-05-10T10:03:15;12.77;;;3.97;;
69841;SDS011;57138;51.326;-0.068;2023-05-10T10:05:42;12.15;;;4.20;;
69841;SDS011;57138;51.326;-0.068;2023-05-10T10:08:08;15.40;;;4.70;;
69841;SDS011;57138;51.326;-0.068;2023-05-10T10:10:35;12.05;;;3.60;;
69841;SDS011;57138;51.326;-0.068;2023-05-10T10:13:00;20.83;;;5.13;;
69841;SDS011;57138;51.326;-0.068;2023-05-10T10:15:27;8.32;;;3.75;;
69841;SDS011;57138;51.326;-0.068;2023-05-10T10:17:56;16.73;;;5.68;;
69841;SDS011;57138;51.326;-0.068;2023-05-10T10:20:22;15.82;;;5.10;;
69841;SDS011;57138;51.326;-0.068;2023-05-10T10:22:49;16.35;;;5.05;;
69841;SDS011;57138;51.326;-0.068;2023-05-10T10:25:16;9.73;;;4.40;;
69841;SDS011;57138;51.326;-0.068;2023-05-10T10:35:39;9.20;;;4.32;;
69841;SDS011;57138;51.326;-0.068;2023-05-10T10:38:07;13.98;;;4.63;;
69841;SDS011;57138;51.326;-0.068;2023-05-10T10:40:34;12.05;;;5.32;;
69841;SDS011;57138;51.326;-0.068;2023-05-10T10:48:50;12.65;;;5.00;;
69841;SDS011;57138;51.326;-0.068;2023-05-10T10:51:36;11.57;;;4.28;;
69841;SDS011;57138;51.326;-0.068;2023-05-10T10:54:10;12.02;;;4.53;;
69841;SDS011;57138;51.326;-0.068;2023-05-10T10:56:36;11.32;;;4.28;;
69841;SDS011;57138;51.326;-0.068;2023-05-10T10:59:02;10.70;;;4.38;;
69841;SDS011;57138;51.326;-0.068;2023-05-10T11:01:37;14.63;;;4.50;;
69841;SDS011;57138;51.326;-0.068;2023-05-10T11:06:36;9.68;;;3.53;;
69841;SDS011;57138;51.326;-0.068;2023-05-10T11:09:08;6.50;;;2.83;;
69841;SDS011;57138;51.326;-0.068;2023-05-10T11:11:43;9.90;;;3.85;;
69841;SDS011;57138;51.326;-0.068;2023-05-10T11:14:23;11.10;;;3.15;;
69841;SDS011;57138;51.326;-0.068;2023-05-10T11:16:49;11.10;;;3.17;;
69841;SDS011;57138;51.326;-0.068;2023-05-10T11:19:17;8.20;;;3.35;;
69841;SDS011;57138;51.326;-0.068;2023-05-10T11:21:51;8.73;;;3.40;;
69841;SDS011;57138;51.326;-0.068;2023-05-10T11:24:38;12.00;;;4.40;;
69841;SDS011;57138;51.326;-0.068;2023-05-10T11:27:03;12.50;;;3.38;;
69841;SDS011;57138;51.326;-0.068;2023-05-10T11:29:35;8.45;;;2.83;;
69841;SDS011;57138;51.326;-0.068;2023-05-10T11:32:01;9.13;;;2.60;;
69841;SDS011;57138;51.326;-0.068;2023-05-10T11:34:30;9.93;;;4.25;;
69841;SDS011;57138;51.326;-0.068;2023-05-10T11:37:02;8.77;;;2.65;;
69841;SDS011;57138;51.326;-0.068;2023-05-10T11:39:29;8.50;;;2.40;;
69841;SDS011;57138;51.326;-0.068;2023-05-10T11:41:55;9.57;;;2.90;;
69841;SDS011;57138;51.326;-0.068;2023-05-10T11:44:21;8.88;;;2.47;;
69841;SDS011;57138;51.326;-0.068;2023-05-10T11:46:47;7.57;;;2.63;;
69841;SDS011;57138;51.326;-0.068;2023-05-10T11:49:14;9.38;;;2.50;;
69841;SDS011;57138;51.326;-0.068;2023-05-10T11:51:40;7.88;;;2.65;;
69841;SDS011;57138;51.326;-0.068;2023-05-10T11:54:08;10.20;;;2.35;;
69841;SDS011;57138;51.326;-0.068;2023-05-10T11:56:39;9.40;;;2.90;;
69841;SDS011;57138;51.326;-0.068;2023-05-10T11:59:05;7.75;;;2.90;;
69841;SDS011;57138;51.326;-0.068;2023-05-10T12:01:31;10.05;;;3.50;;
69841;SDS011;57138;51.326;-0.068;2023-05-10T12:03:57;6.03;;;2.33;;
69841;SDS011;57138;51.326;-0.068;2023-05-10T12:06:32;7.50;;;1.92;;
69841;SDS011;57138;51.326;-0.068;2023-05-10T12:09:02;8.07;;;3.33;;
69841;SDS011;57138;51.326;-0.068;2023-05-10T12:11:33;8.07;;;2.28;;
69841;SDS011;57138;51.326;-0.068;2023-05-10T12:14:04;12.98;;;2.42;;
69841;SDS011;57138;51.326;-0.068;2023-05-10T12:16:30;7.80;;;2.70;;
69841;SDS011;57138;51.326;-0.068;2023-05-10T12:18:57;9.00;;;2.92;;
69841;SDS011;57138;51.326;-0.068;2023-05-10T12:21:24;9.43;;;2.47;;
69841;SDS011;57138;51.326;-0.068;2023-05-10T12:23:51;9.77;;;3.15;;
69841;SDS011;57138;51.326;-0.068;2023-05-10T12:26:23;6.78;;;2.25;;
69841;SDS011;57138;51.326;-0.068;2023-05-10T12:28:52;11.35;;;2.33;;
69841;SDS011;57138;51.326;-0.068;2023-05-10T12:31:19;10.48;;;2.90;;
69841;SDS011;57138;51.326;-0.068;2023-05-10T12:33:45;11.43;;;3.30;;
69841;SDS011;57138;51.326;-0.068;2023-05-10T12:36:13;10.65;;;3.30;;
69841;SDS011;57138;51.326;-0.068;2023-05-10T12:38:41;9.68;;;2.75;;
69841;SDS011;57138;51.326;-0.068;2023-05-10T12:41:09;7.88;;;2.78;;
69841;SDS011;57138;51.326;-0.068;2023-05-10T12:43:36;8.30;;;2.55;;
69841;SDS011;57138;51.326;-0.068;2023-05-10T12:48:33;13.35;;;3.90;;
69841;SDS011;57138;51.326;-0.068;2023-05-10T12:51:00;12.38;;;4.03;;
69841;SDS011;57138;51.326;-0.068;2023-05-10T12:53:26;8.70;;;2.38;;
69841;SDS011;57138;51.326;-0.068;2023-05-10T12:55:52;9.25;;;2.85;;
69841;SDS011;57138;51.326;-0.068;2023-05-10T12:58:18;11.50;;;2.90;;
69841;SDS011;57138;51.326;-0.068;2023-05-10T13:00:45;8.23;;;2.88;;
69841;SDS011;57138;51.326;-0.068;2023-05-10T13:03:11;15.80;;;3.30;;
69841;SDS011;57138;51.326;-0.068;2023-05-10T13:05:37;11.45;;;3.30;;
69841;SDS011;57138;51.326;-0.068;2023-05-10T13:08:03;9.60;;;3.13;;
69841;SDS011;57138;51.326;-0.068;2023-05-10T13:10:30;7.68;;;2.60;;
69841;SDS011;57138;51.326;-0.068;2023-05-10T13:12:57;8.50;;;1.83;;
69841;SDS011;57138;51.326;-0.068;2023-05-10T13:15:23;9.35;;;2.60;;
69841;SDS011;57138;51.326;-0.068;2023-05-10T13:17:49;9.30;;;2.33;;
69841;SDS011;57138;51.326;-0.068;2023-05-10T13:20:15;6.45;;;1.33;;
69841;SDS011;57138;51.326;-0.068;2023-05-10T13:22:42;8.05;;;1.67;;
69841;SDS011;57138;51.326;-0.068;2023-05-10T13:25:09;8.82;;;1.67;;
69841;SDS011;57138;51.326;-0.068;2023-05-10T13:27:37;8.52;;;1.70;;
69841;SDS011;57138;51.326;-0.068;2023-05-10T13:30:04;7.18;;;1.63;;
69841;SDS011;57138;51.326;-0.068;2023-05-10T13:32:30;8.00;;;1.52;;
69841;SDS011;57138;51.326;-0.068;2023-05-10T13:34:56;8.30;;;1.80;;
69841;SDS011;57138;51.326;-0.068;2023-05-10T13:37:22;11.85;;;2.22;;
69841;SDS011;57138;51.326;-0.068;2023-05-10T13:39:48;9.57;;;1.90;;
69841;SDS011;57138;51.326;-0.068;2023-05-10T13:42:13;16.33;;;3.25;;
69841;SDS011;57138;51.326;-0.068;2023-05-10T13:44:39;11.38;;;2.00;;
69841;SDS011;57138;51.326;-0.068;2023-05-10T13:47:05;8.38;;;1.90;;
69841;SDS011;57138;51.326;-0.068;2023-05-10T13:49:32;8.25;;;2.67;;
69841;SDS011;57138;51.326;-0.068;2023-05-10T13:51:59;7.72;;;2.13;;
69841;SDS011;57138;51.326;-0.068;2023-05-10T13:54:30;11.00;;;1.65;;
69841;SDS011;57138;51.326;-0.068;2023-05-10T13:56:56;5.50;;;1.48;;
69841;SDS011;57138;51.326;-0.068;2023-05-10T13:59:22;2.92;;;0.90;;
69841;SDS011;57138;51.326;-0.068;2023-05-10T14:01:47;4.18;;;0.95;;
69841;SDS011;57138;51.326;-0.068;2023-05-10T14:04:13;7.30;;;1.30;;
69841;SDS011;57138;51.326;-0.068;2023-05-10T14:06:38;4.45;;;1.15;;
69841;SDS011;57138;51.326;-0.068;2023-05-10T14:09:04;6.22;;;1.60;;
69841;SDS011;57138;51.326;-0.068;2023-05-10T14:11:31;7.30;;;1.90;;
69841;SDS011;57138;51.326;-0.068;2023-05-10T14:13:56;7.88;;;1.85;;
69841;SDS011;57138;51.326;-0.068;2023-05-10T14:16:22;7.50;;;1.77;;
69841;SDS011;57138;51.326;-0.068;2023-05-10T14:18:49;4.82;;;1.42;;
69841;SDS011;57138;51.326;-0.068;2023-05-10T14:21:15;2.10;;;0.80;;
69841;SDS011;57138;51.326;-0.068;2023-05-10T14:23:41;5.00;;;0.90;;
69841;SDS011;57138;51.326;-0.068;2023-05-10T14:26:07;3.05;;;0.65;;
69841;SDS011;57138;51.326;-0.068;2023-05-10T14:28:33;3.42;;;0.77;;
69841;SDS011;57138;51.326;-0.068;2023-05-10T14:31:01;2.45;;;0.80;;
69841;SDS011;57138;51.326;-0.068;2023-05-10T14:33:27;4.00;;;0.90;;
69841;SDS011;57138;51.326;-0.068;2023-05-10T14:35:54;2.83;;;0.70;;
69841;SDS011;57138;51.326;-0.068;2023-05-10T14:38:22;2.22;;;0.60;;
69841;SDS011;57138;51.326;-0.068;2023-05-10T14:40:48;2.95;;;0.38;;
69841;SDS011;57138;51.326;-0.068;2023-05-10T14:43:14;6.43;;;0.80;;
69841;SDS011;57138;51.326;-0.068;2023-05-10T14:45:39;3.25;;;0.50;;
69841;SDS011;57138;51.326;-0.068;2023-05-10T14:48:05;2.50;;;0.60;;
69841;SDS011;57138;51.326;-0.068;2023-05-10T14:50:31;5.07;;;1.27;;
69841;SDS011;57138;51.326;-0.068;2023-05-10T14:52:57;5.20;;;0.82;;
69841;SDS011;57138;51.326;-0.068;2023-05-10T14:55:24;4.25;;;1.25;;
69841;SDS011;57138;51.326;-0.068;2023-05-10T14:57:49;5.63;;;1.10;;
69841;SDS011;57138;51.326;-0.068;2023-05-10T15:00:16;7.50;;;1.40;;
69841;SDS011;57138;51.326;-0.068;2023-05-10T15:02:44;5.45;;;1.70;;
69841;SDS011;57138;51.326;-0.068;2023-05-10T15:05:10;5.55;;;1.42;;